DAH6186 DAAG-DAOO
Flight info
| Callsign | DAH6186 |
|---|---|
| Flight time | 0h 36m |
| Altitude | 26000 |
| Route | ALR DCT CELBA DCT CHE DCT MOS DCT ORA |
| Aircraft | B738/M-SDE2E3FGHIRWXY/LB1 |
Departure
| Time | 2026-05-07 18:03 |
|---|---|
| Airport | Houari Boumediene Airport (DAAG) |
Arrival
| Time | 2026-05-07 18:39 |
|---|---|
| Airport | Oran Es-Sénia (Ahmed Ben Bella) International Airport (DAOO) |
| Time | Latitude | Longitude | Altitude | Speed | Heading |
|---|---|---|---|---|---|
| 2026-05-07 17:55 | 36.70265 | 3.21576 | 83 ft | 0 kts | 173° |
| 2026-05-07 17:59 | 36.70257 | 3.21578 | 83 ft | 3 kts | 167° |
| 2026-05-07 18:00 | 36.70226 | 3.21608 | 83 ft | 7 kts | 117° |
| 2026-05-07 18:00 | 36.70190 | 3.21678 | 83 ft | 11 kts | 125° |
| 2026-05-07 18:00 | 36.70161 | 3.21731 | 83 ft | 1 kts | 116° |
| 2026-05-07 18:00 | 36.70160 | 3.21733 | 83 ft | 0 kts | 116° |
| 2026-05-07 18:01 | 36.70152 | 3.21752 | 83 ft | 4 kts | 126° |
| 2026-05-07 18:01 | 36.70091 | 3.21753 | 83 ft | 15 kts | 195° |
| 2026-05-07 18:01 | 36.69979 | 3.21754 | 83 ft | 22 kts | 159° |
| 2026-05-07 18:01 | 36.69864 | 3.21816 | 83 ft | 19 kts | 154° |
| 2026-05-07 18:02 | 36.69556 | 3.21954 | 84 ft | 15 kts | 161° |
| 2026-05-07 18:02 | 36.69468 | 3.22002 | 85 ft | 20 kts | 139° |
| 2026-05-07 18:02 | 36.69540 | 3.22292 | 87 ft | 84 kts | 53° |
| 2026-05-07 18:03 | 36.70109 | 3.23251 | 300 ft | 175 kts | 58° |
| 2026-05-07 18:03 | 36.70854 | 3.24569 | 1238 ft | 206 kts | 48° |
| 2026-05-07 18:03 | 36.71763 | 3.25644 | 3116 ft | 185 kts | 40° |
| 2026-05-07 18:03 | 36.72958 | 3.26552 | 3818 ft | 233 kts | 26° |
| 2026-05-07 18:04 | 36.74694 | 3.26990 | 4574 ft | 274 kts | 0° |
| 2026-05-07 18:04 | 36.76559 | 3.26542 | 5820 ft | 287 kts | 341° |
| 2026-05-07 18:04 | 36.77935 | 3.25183 | 8124 ft | 248 kts | 315° |
| 2026-05-07 18:04 | 36.79275 | 3.23574 | 8626 ft | 288 kts | 319° |
| 2026-05-07 18:05 | 36.80723 | 3.21809 | 9667 ft | 303 kts | 311° |
| 2026-05-07 18:05 | 36.82120 | 3.19691 | 10231 ft | 340 kts | 311° |
| 2026-05-07 18:05 | 36.83503 | 3.17169 | 11105 ft | 366 kts | 301° |
| 2026-05-07 18:05 | 36.84972 | 3.14545 | 12431 ft | 371 kts | 310° |
| 2026-05-07 18:06 | 36.86731 | 3.12294 | 13759 ft | 371 kts | 318° |
| 2026-05-07 18:06 | 36.88723 | 3.10241 | 14869 ft | 375 kts | 322° |
| 2026-05-07 18:06 | 36.90819 | 3.08293 | 15959 ft | 379 kts | 324° |
| 2026-05-07 18:06 | 36.92959 | 3.06366 | 17057 ft | 384 kts | 324° |
| 2026-05-07 18:07 | 36.95108 | 3.04421 | 18072 ft | 389 kts | 324° |
| 2026-05-07 18:07 | 36.97315 | 3.02389 | 19014 ft | 394 kts | 323° |
| 2026-05-07 18:07 | 36.99475 | 3.00308 | 19917 ft | 399 kts | 320° |
| 2026-05-07 18:07 | 37.01451 | 2.97885 | 20763 ft | 403 kts | 311° |
| 2026-05-07 18:08 | 37.03148 | 2.95034 | 21604 ft | 407 kts | 303° |
| 2026-05-07 18:08 | 37.04466 | 2.91911 | 22380 ft | 412 kts | 294° |
| 2026-05-07 18:08 | 37.05407 | 2.88510 | 23133 ft | 417 kts | 285° |
| 2026-05-07 18:08 | 37.05930 | 2.84948 | 23882 ft | 422 kts | 277° |
| 2026-05-07 18:09 | 37.06024 | 2.81295 | 24612 ft | 426 kts | 269° |
| 2026-05-07 18:09 | 37.05677 | 2.77581 | 25317 ft | 431 kts | 261° |
| 2026-05-07 18:09 | 37.04900 | 2.73963 | 25970 ft | 437 kts | 253° |
| 2026-05-07 18:09 | 37.03702 | 2.70457 | 26191 ft | 441 kts | 243° |
| 2026-05-07 18:10 | 37.01913 | 2.67366 | 26206 ft | 441 kts | 229° |
| 2026-05-07 18:10 | 36.99564 | 2.64920 | 26210 ft | 442 kts | 217° |
| 2026-05-07 18:10 | 36.96968 | 2.62876 | 26209 ft | 443 kts | 213° |
| 2026-05-07 18:10 | 36.94331 | 2.60886 | 26208 ft | 442 kts | 214° |
| 2026-05-07 18:11 | 36.91748 | 2.58761 | 26206 ft | 442 kts | 217° |
| 2026-05-07 18:11 | 36.90118 | 2.57267 | 26205 ft | 441 kts | 220° |
| 2026-05-07 18:11 | 36.86969 | 2.53985 | 26208 ft | 441 kts | 224° |
| 2026-05-07 18:11 | 36.84750 | 2.51387 | 26209 ft | 440 kts | 226° |
| 2026-05-07 18:12 | 36.82582 | 2.48682 | 26211 ft | 440 kts | 228° |
| 2026-05-07 18:12 | 36.80458 | 2.45923 | 26209 ft | 440 kts | 229° |
| 2026-05-07 18:12 | 36.78388 | 2.43176 | 26207 ft | 440 kts | 229° |
| 2026-05-07 18:12 | 36.76283 | 2.40356 | 26210 ft | 440 kts | 229° |
| 2026-05-07 18:13 | 36.74210 | 2.37569 | 26209 ft | 440 kts | 229° |
| 2026-05-07 18:13 | 36.72150 | 2.34800 | 26212 ft | 440 kts | 229° |
| 2026-05-07 18:13 | 36.70051 | 2.31981 | 26213 ft | 440 kts | 229° |
| 2026-05-07 18:13 | 36.67974 | 2.29197 | 26213 ft | 439 kts | 229° |
| 2026-05-07 18:14 | 36.65913 | 2.26441 | 26212 ft | 439 kts | 229° |
| 2026-05-07 18:14 | 36.63768 | 2.23678 | 26216 ft | 439 kts | 227° |
| 2026-05-07 18:14 | 36.61694 | 2.20925 | 26220 ft | 439 kts | 230° |
| 2026-05-07 18:14 | 36.59821 | 2.17938 | 26221 ft | 438 kts | 238° |
| 2026-05-07 18:15 | 36.58333 | 2.14641 | 26226 ft | 437 kts | 245° |
| 2026-05-07 18:15 | 36.57132 | 2.11239 | 26226 ft | 436 kts | 249° |
| 2026-05-07 18:15 | 36.56023 | 2.07692 | 26227 ft | 437 kts | 250° |
| 2026-05-07 18:15 | 36.54966 | 2.04177 | 26227 ft | 437 kts | 251° |
| 2026-05-07 18:16 | 36.53900 | 2.00649 | 26227 ft | 437 kts | 250° |
| 2026-05-07 18:16 | 36.52803 | 1.97108 | 26228 ft | 436 kts | 250° |
| 2026-05-07 18:16 | 36.51703 | 1.93648 | 26229 ft | 437 kts | 249° |
| 2026-05-07 18:16 | 36.50559 | 1.90131 | 26226 ft | 437 kts | 249° |
| 2026-05-07 18:17 | 36.49414 | 1.86675 | 26228 ft | 438 kts | 249° |
| 2026-05-07 18:17 | 36.48232 | 1.83155 | 26231 ft | 437 kts | 249° |
| 2026-05-07 18:17 | 36.47065 | 1.79709 | 26232 ft | 438 kts | 249° |
| 2026-05-07 18:17 | 36.45878 | 1.76222 | 26230 ft | 437 kts | 248° |
| 2026-05-07 18:18 | 36.44704 | 1.72787 | 26225 ft | 437 kts | 248° |
| 2026-05-07 18:18 | 36.43512 | 1.69304 | 26221 ft | 437 kts | 248° |
| 2026-05-07 18:18 | 36.42319 | 1.65827 | 26216 ft | 436 kts | 248° |
| 2026-05-07 18:18 | 36.41134 | 1.62375 | 26217 ft | 437 kts | 248° |
| 2026-05-07 18:19 | 36.39949 | 1.58922 | 26216 ft | 437 kts | 248° |
| 2026-05-07 18:19 | 36.38762 | 1.55469 | 26214 ft | 437 kts | 248° |
| 2026-05-07 18:19 | 36.37561 | 1.51977 | 26213 ft | 438 kts | 248° |
| 2026-05-07 18:19 | 36.36369 | 1.48510 | 26217 ft | 437 kts | 248° |
| 2026-05-07 18:20 | 36.35205 | 1.45081 | 26220 ft | 438 kts | 249° |
| 2026-05-07 18:20 | 36.34037 | 1.41603 | 26216 ft | 438 kts | 249° |
| 2026-05-07 18:20 | 36.32874 | 1.38129 | 26216 ft | 437 kts | 249° |
| 2026-05-07 18:20 | 36.31709 | 1.34645 | 26215 ft | 437 kts | 248° |
| 2026-05-07 18:21 | 36.30553 | 1.31192 | 26214 ft | 437 kts | 248° |
| 2026-05-07 18:21 | 36.29386 | 1.27714 | 26214 ft | 437 kts | 248° |
| 2026-05-07 18:21 | 36.28218 | 1.24240 | 26214 ft | 437 kts | 248° |
| 2026-05-07 18:21 | 36.27043 | 1.20754 | 26212 ft | 437 kts | 248° |
| 2026-05-07 18:22 | 36.25870 | 1.17277 | 26210 ft | 438 kts | 248° |
| 2026-05-07 18:22 | 36.25099 | 1.14995 | 26212 ft | 438 kts | 248° |
| 2026-05-07 18:22 | 36.23527 | 1.10352 | 26209 ft | 438 kts | 248° |
| 2026-05-07 18:22 | 36.22345 | 1.06867 | 26210 ft | 439 kts | 248° |
| 2026-05-07 18:23 | 36.21175 | 1.03418 | 26208 ft | 438 kts | 248° |
| 2026-05-07 18:23 | 36.19989 | 0.99925 | 26207 ft | 439 kts | 248° |
| 2026-05-07 18:23 | 36.18808 | 0.96454 | 26204 ft | 438 kts | 248° |
| 2026-05-07 18:23 | 36.17635 | 0.93009 | 26203 ft | 437 kts | 248° |
| 2026-05-07 18:24 | 36.16452 | 0.89541 | 26203 ft | 438 kts | 248° |
| 2026-05-07 18:24 | 36.15264 | 0.86060 | 26203 ft | 438 kts | 248° |
| 2026-05-07 18:24 | 36.14089 | 0.82617 | 26199 ft | 438 kts | 248° |
| 2026-05-07 18:24 | 36.12903 | 0.79149 | 26200 ft | 438 kts | 248° |
| 2026-05-07 18:25 | 36.11724 | 0.75709 | 26198 ft | 438 kts | 248° |
| 2026-05-07 18:25 | 36.10540 | 0.72259 | 26196 ft | 438 kts | 248° |
| 2026-05-07 18:25 | 36.09344 | 0.68778 | 26188 ft | 439 kts | 248° |
| 2026-05-07 18:25 | 36.08148 | 0.65301 | 26182 ft | 438 kts | 248° |
| 2026-05-07 18:26 | 36.06967 | 0.61869 | 26175 ft | 438 kts | 248° |
| 2026-05-07 18:26 | 36.05769 | 0.58388 | 26169 ft | 439 kts | 248° |
| 2026-05-07 18:26 | 36.04579 | 0.54939 | 26167 ft | 439 kts | 248° |
| 2026-05-07 18:26 | 36.03386 | 0.51483 | 26165 ft | 438 kts | 248° |
| 2026-05-07 18:27 | 36.02198 | 0.48049 | 26163 ft | 438 kts | 248° |
| 2026-05-07 18:27 | 36.00997 | 0.44578 | 26166 ft | 439 kts | 248° |
| 2026-05-07 18:27 | 35.99794 | 0.41110 | 26166 ft | 438 kts | 248° |
| 2026-05-07 18:27 | 35.99001 | 0.38824 | 26168 ft | 437 kts | 248° |
| 2026-05-07 18:28 | 35.97409 | 0.34240 | 26170 ft | 438 kts | 247° |
| 2026-05-07 18:28 | 35.96220 | 0.30817 | 26173 ft | 438 kts | 247° |
| 2026-05-07 18:28 | 35.95032 | 0.27394 | 25837 ft | 431 kts | 247° |
| 2026-05-07 18:28 | 35.93865 | 0.24035 | 25255 ft | 416 kts | 247° |
| 2026-05-07 18:29 | 35.92758 | 0.20853 | 24399 ft | 403 kts | 247° |
| 2026-05-07 18:29 | 35.91660 | 0.17727 | 23667 ft | 388 kts | 246° |
| 2026-05-07 18:29 | 35.90611 | 0.14774 | 22985 ft | 374 kts | 245° |
| 2026-05-07 18:29 | 35.89357 | 0.12077 | 22586 ft | 354 kts | 236° |
| 2026-05-07 18:30 | 35.87882 | 0.09776 | 22334 ft | 333 kts | 229° |
| 2026-05-07 18:30 | 35.86371 | 0.07691 | 22093 ft | 314 kts | 231° |
| 2026-05-07 18:30 | 35.85110 | 0.05586 | 21797 ft | 301 kts | 240° |
| 2026-05-07 18:30 | 35.84216 | 0.03300 | 21189 ft | 299 kts | 249° |
| 2026-05-07 18:31 | 35.83491 | 0.00894 | 20548 ft | 299 kts | 251° |
| 2026-05-07 18:31 | 35.82798 | -0.01481 | 19903 ft | 298 kts | 251° |
| 2026-05-07 18:31 | 35.82072 | -0.03861 | 19257 ft | 296 kts | 250° |
| 2026-05-07 18:31 | 35.81329 | -0.06174 | 18620 ft | 294 kts | 249° |
| 2026-05-07 18:32 | 35.80552 | -0.08481 | 17990 ft | 292 kts | 248° |
| 2026-05-07 18:32 | 35.79768 | -0.10758 | 17396 ft | 289 kts | 248° |
| 2026-05-07 18:32 | 35.78986 | -0.13019 | 16788 ft | 287 kts | 248° |
| 2026-05-07 18:32 | 35.78236 | -0.15305 | 16065 ft | 289 kts | 250° |
| 2026-05-07 18:33 | 35.77560 | -0.17674 | 14293 ft | 324 kts | 252° |
| 2026-05-07 18:33 | 35.76830 | -0.20400 | 11857 ft | 366 kts | 252° |
| 2026-05-07 18:33 | 35.76022 | -0.23326 | 8223 ft | 420 kts | 251° |
| 2026-05-07 18:33 | 35.74947 | -0.26609 | 5746 ft | 417 kts | 248° |
| 2026-05-07 18:34 | 35.73857 | -0.29692 | 5267 ft | 369 kts | 244° |
| 2026-05-07 18:34 | 35.72802 | -0.32353 | 5229 ft | 322 kts | 245° |
| 2026-05-07 18:34 | 35.71791 | -0.34645 | 4912 ft | 286 kts | 236° |
| 2026-05-07 18:34 | 35.70638 | -0.36437 | 4083 ft | 255 kts | 228° |
| 2026-05-07 18:35 | 35.69556 | -0.38059 | 3331 ft | 233 kts | 236° |
| 2026-05-07 18:35 | 35.68780 | -0.39653 | 2786 ft | 217 kts | 237° |
| 2026-05-07 18:35 | 35.68023 | -0.41143 | 2425 ft | 197 kts | 239° |
| 2026-05-07 18:35 | 35.67410 | -0.42629 | 2032 ft | 197 kts | 249° |
| 2026-05-07 18:36 | 35.67000 | -0.44290 | 1943 ft | 212 kts | 253° |
| 2026-05-07 18:36 | 35.66615 | -0.46170 | 1580 ft | 241 kts | 253° |
| 2026-05-07 18:36 | 35.66155 | -0.48169 | 1626 ft | 250 kts | 253° |
| 2026-05-07 18:36 | 35.65657 | -0.50121 | 1472 ft | 222 kts | 252° |
| 2026-05-07 18:37 | 35.65266 | -0.51832 | 1435 ft | 196 kts | 255° |
| 2026-05-07 18:37 | 35.64897 | -0.53395 | 1249 ft | 183 kts | 252° |
| 2026-05-07 18:37 | 35.64501 | -0.54861 | 1123 ft | 182 kts | 252° |
| 2026-05-07 18:37 | 35.64059 | -0.56335 | 994 ft | 186 kts | 250° |
| 2026-05-07 18:38 | 35.63578 | -0.57769 | 838 ft | 177 kts | 248° |
| 2026-05-07 18:38 | 35.63090 | -0.59127 | 673 ft | 172 kts | 248° |
| 2026-05-07 18:38 | 35.62635 | -0.60459 | 413 ft | 167 kts | 251° |
| 2026-05-07 18:38 | 35.62197 | -0.61765 | 309 ft | 158 kts | 250° |
| 2026-05-07 18:39 | 35.61822 | -0.62881 | 297 ft | 110 kts | 247° |
| 2026-05-07 18:39 | 35.61678 | -0.63318 | 296 ft | 11 kts | 246° |
| 2026-05-07 18:39 | 35.61657 | -0.63377 | 296 ft | 13 kts | 245° |
| 2026-05-07 18:39 | 35.61572 | -0.63475 | 296 ft | 16 kts | 192° |
| 2026-05-07 18:40 | 35.61429 | -0.63407 | 296 ft | 29 kts | 129° |
| 2026-05-07 18:40 | 35.61435 | -0.63150 | 295 ft | 41 kts | 66° |
| 2026-05-07 18:40 | 35.61579 | -0.62751 | 293 ft | 60 kts | 68° |
| 2026-05-07 18:40 | 35.61744 | -0.62280 | 292 ft | 53 kts | 67° |
| 2026-05-07 18:41 | 35.61878 | -0.61864 | 292 ft | 52 kts | 67° |
| 2026-05-07 18:41 | 35.62016 | -0.61469 | 294 ft | 39 kts | 78° |
| 2026-05-07 18:41 | 35.61912 | -0.61346 | 294 ft | 19 kts | 170° |